Pagrindinis puslapis
METAR-TAF:

METAR-TAF

Oro uostai :

Stavropolis, Rusija

platuma: 45-20N, ilguma: 042-00E, Aukštis: 453 m

Dabartinis oras

Ataskaita buvo paskelbta 39 minutes, ne 12:00 UTC
Vėjas 4 kt iš Pietų/Pietryčių
Temperatūra 11°C
Drėgmė 87%
Slėgis 1013 hPa
Matomumas 10 km arba daugiau
Išsisklaidę debesys ne aukštis 3400 ft

METAR: URMT 281200Z 15002MPS 9999 SCT034 11/09 Q1013 R07/290155 NOSIG RMK QFE719

Laikas: 16:39 (12:39 UTC)

Prognozė

Ataskaita buvo paskelbta 1 valandą ir 39 minutes, ne 11:00 UTC
Prognozė galioja nuo 28 metu 12 UTC su 28 metu 21 UTC
Vėjas 6 kt iš Pietryčių su gūsio iki 16 kt
Matomumas 10 km arba daugiau
Su prošvaistėmis ne aukštis 2000 ft, Liūtiniai kamuoliniai debesys.
Laikinai
nuo 28 metu 12 UTC su 28 metu 21 UTC
Vėjas 10 kt iš Pietų/Pietryčių su gūsio iki 19 kt
Matomumas: 6000 m
Išsisklaidę debesys ne aukštis 1600 ft
Su prošvaistėmis ne aukštis 2000 ft, Liūtiniai kamuoliniai debesys.
lietus

TAF: URMT 281100Z 2812/2821 13003G08MPS 9999 BKN020CB TEMPO 2812/2821 16005G10MPS 6000 -SHRA SCT016 BKN020CB

Orai ataskaitas ir orų prognozės (METAR, TAF).

turimą stotys yra geltonos ir raudonos taškus žemėlapyje.

Perkelti pele per norėdami pamatyti stoties vardą.

Tada spustelėkite, norėdami matyti oro stebėjimo ir prognozės.

Norėdami pakeisti žemėlapį: spustelėkite ant žalios mygtukų su juodo kryžiaus žemyn,; žalią mygtuką su brūkšneliu, jei norite nutolinti; arba žalių rodyklių gretimoms žemėlapius.


METAR-TAF: